TAF Text Data
IDs:
Format:
Raw Decoded Include METAR

Data at: 1538 UTC 27 Nov 2021

KMPV 271415Z 2714/2812 31018G28KT 2SM -SHSN OVC020
  TEMPO 2714/2716 1SM -SHSN OVC017
  FM271600 31017G27KT P6SM VCSH OVC021
  FM271900 30010G19KT P6SM BKN035
  FM280300 29007KT P6SM SCT035
  FM280800 00000KT P6SM FEW050